Time;durP1;ratioP1;P1;durP2;ratioP2;P2;SDS_P1;SDS_P2;PMS_P1;PMS_P2;Temp;Humidity;BMP_temperature;BMP_pressure;BME280_temperature;BME280_humidity;BME280_pressure;Samples;Min_cycle;Max_cycle;Signal;HPM_P1;HPM_P2
2024/03/10 00:02:29;;;;;;;1.20;0.45;;;1.90;99.90;;;;;;20999179;28;20102;-45
2024/03/10 00:12:31;;;;;;;2.97;0.50;;;1.80;99.90;;;;;;20998026;28;20031;-46
2024/03/10 00:22:32;;;;;;;2.03;0.50;;;1.80;99.90;;;;;;20996324;28;20033;-43
2024/03/10 00:32:38;;;;;;;0.63;0.30;;;2.00;99.90;;;;;;20939728;28;20565;-46
2024/03/10 00:42:40;;;;;;;1.48;0.60;;;2.20;99.90;;;;;;20948401;28;20082;-46
2024/03/10 00:52:41;;;;;;;0.60;0.30;;;2.60;99.90;;;;;;21035954;28;20036;-49
2024/03/10 01:02:47;;;;;;;0.57;0.30;;;2.50;99.90;;;;;;21059908;28;20032;-47
2024/03/10 01:12:49;;;;;;;0.88;0.47;;;2.50;99.90;;;;;;21029186;28;20020;-47
2024/03/10 01:22:51;;;;;;;0.95;0.70;;;2.50;99.90;;;;;;21070608;28;20032;-48
2024/03/10 01:32:53;;;;;;;3.53;1.10;;;2.60;99.90;;;;;;20982105;28;20040;-51
2024/03/10 01:42:55;;;;;;;1.27;0.70;;;2.70;99.90;;;;;;20909384;28;20500;-47
2024/03/10 01:52:57;;;;;;;1.50;1.00;;;2.60;99.90;;;;;;20914765;28;20044;-48
2024/03/10 02:02:59;;;;;;;1.85;0.70;;;2.70;99.90;;;;;;20970579;28;20044;-46
2024/03/10 02:13:05;;;;;;;2.88;1.23;;;2.70;99.90;;;;;;21055809;28;20039;-50
2024/03/10 02:23:07;;;;;;;2.53;1.63;;;2.60;99.90;;;;;;21012963;28;20040;-49
2024/03/10 02:53:59;;;;;;;3.20;0.93;;;2.70;99.90;;;;;;21072627;28;20052;-45
2024/03/10 03:04:04;;;;;;;2.20;1.40;;;2.70;99.90;;;;;;21087555;28;20044;-49
2024/03/10 03:14:08;;;;;;;2.50;1.20;;;2.50;99.90;;;;;;21045943;28;20090;-46
2024/03/10 03:24:13;;;;;;;2.60;0.80;;;2.40;99.90;;;;;;21085929;28;20032;-47
2024/03/10 03:34:15;;;;;;;1.05;0.50;;;2.50;99.90;;;;;;21027341;28;20037;-45
2024/03/10 03:44:18;;;;;;;2.03;1.05;;;2.60;99.90;;;;;;21054959;28;20040;-43
2024/03/10 03:54:20;;;;;;;1.45;0.70;;;2.70;99.90;;;;;;21001341;28;20491;-49
2024/03/10 04:04:22;;;;;;;1.90;0.60;;;2.70;99.90;;;;;;20980672;28;20040;-49
2024/03/10 04:14:24;;;;;;;1.45;0.40;;;2.50;99.90;;;;;;20995904;28;20079;-46
2024/03/10 04:24:26;;;;;;;0.95;0.35;;;2.50;99.90;;;;;;20979667;28;20036;-46
2024/03/10 04:34:29;;;;;;;1.33;0.40;;;2.50;99.90;;;;;;20996621;28;20036;-49
2024/03/10 04:44:30;;;;;;;0.98;0.43;;;2.40;99.90;;;;;;20995025;28;20048;-51
2024/03/10 04:54:32;;;;;;;0.28;0.15;;;2.10;99.90;;;;;;20960050;28;20495;-51
2024/03/10 05:04:34;;;;;;;0.63;0.63;;;1.90;99.90;;;;;;20994095;28;20085;-51
2024/03/10 05:14:36;;;;;;;0.00;0.00;;;2.20;99.90;;;;;;20993558;28;20033;-44
2024/03/10 05:24:44;;;;;;;0.22;0.00;;;2.30;99.90;;;;;;20991546;28;20044;-47
2024/03/10 05:34:46;;;;;;;0.00;0.00;;;2.20;99.90;;;;;;20973939;28;20039;-52
2024/03/10 05:44:48;;;;;;;0.25;0.00;;;2.00;99.90;;;;;;20991042;28;20106;-47
2024/03/10 05:54:50;;;;;;;0.00;0.00;;;2.10;99.90;;;;;;21035992;28;20055;-51
2024/03/10 06:04:52;;;;;;;0.00;0.00;;;2.10;99.90;;;;;;21072774;28;20035;-48
2024/03/10 06:14:57;;;;;;;5.88;2.28;;;2.20;99.90;;;;;;21054520;28;20096;-49
2024/03/10 06:35:20;;;;;;;0.00;0.00;;;3.10;99.90;;;;;;21031884;28;20028;-49
2024/03/10 06:45:23;;;;;;;0.00;0.00;;;2.90;99.90;;;;;;21070656;28;20040;-46
2024/03/10 06:55:26;;;;;;;0.85;0.55;;;2.80;99.90;;;;;;21052332;28;20044;-46
2024/03/10 07:05:29;;;;;;;0.00;0.00;;;2.90;99.90;;;;;;21051406;28;20052;-49
2024/03/10 07:15:31;;;;;;;0.32;0.00;;;3.00;99.90;;;;;;21070018;28;20379;-49
2024/03/10 07:25:33;;;;;;;0.00;0.00;;;2.90;99.90;;;;;;21051003;28;20028;-51
2024/03/10 07:35:35;;;;;;;0.28;0.10;;;2.70;99.90;;;;;;21069147;28;20032;-50
2024/03/10 07:45:37;;;;;;;0.15;0.10;;;2.20;99.90;;;;;;21059777;28;20536;-51
2024/03/10 07:55:39;;;;;;;0.38;0.10;;;2.10;99.90;;;;;;21065256;28;20402;-40
2024/03/10 08:05:41;;;;;;;0.22;0.00;;;2.40;99.90;;;;;;21082666;28;20043;-45
2024/03/10 08:15:43;;;;;;;2.78;0.10;;;2.40;99.90;;;;;;21063976;28;20028;-47
2024/03/10 08:25:45;;;;;;;0.38;0.00;;;2.50;99.90;;;;;;21080875;28;20036;-51
2024/03/10 08:35:47;;;;;;;0.10;0.00;;;2.60;99.90;;;;;;21080439;28;20078;-49
2024/03/10 08:45:49;;;;;;;0.13;0.00;;;2.60;99.90;;;;;;21078881;28;20054;-47
2024/03/10 08:55:52;;;;;;;2.45;0.00;;;2.70;99.90;;;;;;21003398;28;20044;-49
2024/03/10 09:05:54;;;;;;;0.00;0.00;;;2.70;99.90;;;;;;20993952;28;20037;-52
2024/03/10 09:15:57;;;;;;;0.50;0.00;;;2.80;99.90;;;;;;20993148;28;20093;-50
2024/03/10 09:26:01;;;;;;;0.20;0.00;;;2.70;99.90;;;;;;20992909;28;20589;-47
2024/03/10 09:36:05;;;;;;;0.00;0.00;;;2.60;99.90;;;;;;20991623;28;20029;-46
2024/03/10 09:46:13;;;;;;;0.00;0.00;;;2.60;99.90;;;;;;20991010;28;20074;-48
2024/03/10 09:56:14;;;;;;;0.00;0.00;;;2.60;99.90;;;;;;21063638;28;20044;-51
2024/03/10 10:06:18;;;;;;;0.00;0.00;;;2.60;99.90;;;;;;21054387;28;20044;-49
2024/03/10 10:16:20;;;;;;;13.90;10.25;;;3.10;99.90;;;;;;21072775;28;20036;-49
2024/03/10 10:26:22;;;;;;;0.00;0.00;;;3.40;99.90;;;;;;21071941;28;20043;-45
2024/03/10 10:36:24;;;;;;;1.20;0.10;;;3.60;99.90;;;;;;21071494;28;20032;-46
2024/03/10 10:46:27;;;;;;;1.75;0.75;;;3.70;99.90;;;;;;21076305;28;20034;-49
2024/03/10 10:56:29;;;;;;;3.78;1.73;;;4.00;99.90;;;;;;21094550;28;20105;-49
2024/03/10 11:06:33;;;;;;;1.38;0.30;;;4.50;99.90;;;;;;21042795;28;20028;-47
2024/03/10 11:16:35;;;;;;;1.10;0.10;;;4.60;99.90;;;;;;21067040;28;20032;-46
2024/03/10 11:26:36;;;;;;;0.17;0.00;;;4.50;99.90;;;;;;21083595;28;20351;-46
2024/03/10 11:36:40;;;;;;;2.75;1.63;;;4.40;99.90;;;;;;21082807;28;20028;-47
2024/03/10 11:46:43;;;;;;;0.00;0.00;;;4.30;99.90;;;;;;21082668;28;20028;-49
2024/03/10 11:56:51;;;;;;;0.00;0.00;;;4.20;99.90;;;;;;21078279;28;20372;-48
2024/03/10 12:06:53;;;;;;;0.70;0.10;;;4.20;99.90;;;;;;21081222;28;20540;-48
2024/03/10 12:16:55;;;;;;;0.28;0.15;;;3.90;99.90;;;;;;21080375;28;20475;-48
2024/03/10 12:27:06;;;;;;;0.88;0.20;;;3.70;99.90;;;;;;21079943;28;20036;-40
2024/03/10 12:37:07;;;;;;;;;;;3.60;99.90;;;;;;21075688;28;20024;-49
2024/03/10 12:47:09;;;;;;;0.10;0.00;;;3.80;99.90;;;;;;21060553;28;19926;-48
2024/03/10 12:57:11;;;;;;;0.30;0.10;;;3.90;99.90;;;;;;21035818;28;20028;-48
2024/03/10 13:07:14;;;;;;;1.50;0.10;;;4.00;99.90;;;;;;21033307;28;20044;-49
2024/03/10 13:17:17;;;;;;;1.00;0.28;;;4.00;99.90;;;;;;21043560;28;20032;-50
2024/03/10 13:27:19;;;;;;;0.63;0.15;;;4.10;99.90;;;;;;21054981;28;20036;-50
2024/03/10 13:37:34;;;;;;;0.45;0.20;;;4.20;99.90;;;;;;21018943;28;20032;-51
2024/03/10 13:47:36;;;;;;;2.03;0.35;;;4.30;99.90;;;;;;21073817;28;20044;-47
2024/03/10 13:57:45;;;;;;;178.07;4.40;;;4.40;99.90;;;;;;21023044;28;20495;-48
2024/03/10 14:07:47;;;;;;;178.13;5.70;;;3.80;99.90;;;;;;21037266;28;20040;-47
2024/03/10 14:17:49;;;;;;;180.82;5.32;;;3.40;99.90;;;;;;21037479;28;20035;-47
2024/03/10 14:27:53;;;;;;;0.00;0.00;;;3.30;99.90;;;;;;21059400;28;20032;-49
2024/03/10 14:37:55;;;;;;;2.05;0.00;;;2.80;99.90;;;;;;21062561;28;20490;-51
2024/03/10 14:47:57;;;;;;;0.00;0.00;;;2.60;99.90;;;;;;21030661;28;20036;-40
2024/03/10 14:58:00;;;;;;;0.10;0.00;;;2.70;99.90;;;;;;20966100;28;20036;-49
2024/03/10 15:08:05;;;;;;;0.88;0.00;;;3.30;99.90;;;;;;20972079;28;20037;-45
2024/03/10 15:18:08;;;;;;;1.55;1.35;;;3.50;99.90;;;;;;20986785;28;20097;-51
2024/03/10 15:28:11;;;;;;;0.47;0.00;;;3.50;99.90;;;;;;20960582;28;20450;-47
2024/03/10 15:38:13;;;;;;;1.70;0.00;;;3.60;99.90;;;;;;20947424;28;20028;-48
2024/03/10 15:48:16;;;;;;;1.45;0.00;;;4.00;99.90;;;;;;20915309;28;20341;-46
2024/03/10 15:58:18;;;;;;;0.30;0.00;;;4.60;99.90;;;;;;20978551;28;20037;-50
2024/03/10 16:08:24;;;;;;;0.00;0.00;;;4.40;99.90;;;;;;20988903;28;20553;-46
2024/03/10 16:18:27;;;;;;;0.10;0.00;;;3.80;99.90;;;;;;20999019;28;20028;-49
2024/03/10 16:28:29;;;;;;;0.80;0.00;;;3.40;99.90;;;;;;20997828;28;20024;-49
2024/03/10 16:38:31;;;;;;;1.15;0.90;;;2.90;99.90;;;;;;20950597;28;20028;-48
2024/03/10 16:48:33;;;;;;;1.08;0.00;;;2.40;99.90;;;;;;20992859;28;20039;-47
2024/03/10 16:58:37;;;;;;;0.20;0.15;;;2.00;99.90;;;;;;21111352;28;20090;-45
2024/03/10 17:08:40;;;;;;;0.95;0.50;;;1.80;99.90;;;;;;21060030;28;20102;-46
2024/03/10 17:18:44;;;;;;;0.10;0.00;;;1.60;99.90;;;;;;21077480;28;20540;-45
2024/03/10 17:28:47;;;;;;;0.32;0.10;;;1.50;99.90;;;;;;21150670;28;20046;-47
2024/03/10 17:38:49;;;;;;;0.22;0.00;;;1.80;99.90;;;;;;21086187;28;20032;-50
2024/03/10 17:48:58;;;;;;;0.15;0.00;;;2.00;99.90;;;;;;21132971;28;20107;-46
2024/03/10 17:59:17;;;;;;;0.10;0.00;;;2.10;99.90;;;;;;21055679;28;20036;-44
2024/03/10 18:09:27;;;;;;;1.27;0.30;;;1.90;99.90;;;;;;21152618;28;20032;-47
2024/03/10 18:19:38;;;;;;;1.13;0.00;;;2.00;99.90;;;;;;21066491;28;20032;-49
2024/03/10 18:29:43;;;;;;;0.63;0.10;;;2.40;99.90;;;;;;21037902;28;20032;-47
2024/03/10 18:39:49;;;;;;;0.05;0.00;;;2.50;99.90;;;;;;21154358;28;20035;-47
2024/03/10 18:49:55;;;;;;;0.50;0.28;;;2.40;99.90;;;;;;21147435;28;20039;-49
2024/03/10 18:59:57;;;;;;;1.75;0.10;;;2.40;99.90;;;;;;21155340;28;20486;-45
2024/03/10 19:09:59;;;;;;;1.65;0.13;;;2.50;99.90;;;;;;21052888;28;20047;-39
2024/03/10 19:20:01;;;;;;;1.48;0.10;;;2.70;99.90;;;;;;21097600;28;20032;-40
2024/03/10 19:30:04;;;;;;;1.25;0.20;;;2.80;99.90;;;;;;21111639;28;20032;-47
2024/03/10 19:40:13;;;;;;;1.83;0.10;;;2.50;99.90;;;;;;21111988;28;20024;-43
2024/03/10 19:50:18;;;;;;;0.52;0.10;;;2.30;99.90;;;;;;21088671;28;20070;-45
2024/03/10 20:00:21;;;;;;;1.30;0.10;;;2.10;99.90;;;;;;21168256;28;20039;-44
2024/03/10 20:10:24;;;;;;;1.38;0.20;;;1.70;99.90;;;;;;21088704;28;20439;-48
2024/03/10 20:20:26;;;;;;;1.70;0.40;;;1.70;99.90;;;;;;21166053;28;20031;-48
2024/03/10 20:30:31;;;;;;;0.73;0.20;;;1.70;99.90;;;;;;21119674;28;20032;-46
2024/03/10 20:40:33;;;;;;;1.27;0.20;;;1.70;99.90;;;;;;21122880;28;20036;-46
2024/03/10 20:50:35;;;;;;;0.95;0.17;;;1.80;99.90;;;;;;21067339;28;20035;-44
2024/03/10 21:00:39;;;;;;;1.20;0.30;;;1.90;99.90;;;;;;21123522;28;20040;-45
2024/03/10 21:10:42;;;;;;;1.67;0.10;;;1.80;99.90;;;;;;21078142;28;20036;-44
2024/03/10 21:20:44;;;;;;;2.67;0.20;;;1.80;99.90;;;;;;21092801;28;20040;-43
2024/03/10 21:30:46;;;;;;;0.85;0.10;;;1.90;99.90;;;;;;20977036;28;20076;-45
2024/03/10 21:40:50;;;;;;;1.83;0.32;;;2.10;99.90;;;;;;20907758;28;20566;-45
2024/03/10 21:50:52;;;;;;;2.25;0.47;;;2.20;99.90;;;;;;20980364;28;20048;-48
2024/03/10 22:00:54;;;;;;;5.70;0.50;;;2.20;99.90;;;;;;20986659;28;20047;-41
2024/03/10 22:10:56;;;;;;;1.85;0.40;;;2.10;99.90;;;;;;21150604;28;20117;-49
2024/03/10 22:20:58;;;;;;;5.13;0.85;;;2.10;99.90;;;;;;21081088;28;20034;-47
2024/03/10 22:31:00;;;;;;;2.05;0.60;;;1.90;99.90;;;;;;21157966;28;20028;-46
2024/03/10 22:41:04;;;;;;;4.65;0.80;;;1.60;99.90;;;;;;21145901;28;20040;-44
2024/03/10 22:51:06;;;;;;;2.67;0.75;;;1.30;99.90;;;;;;21155536;28;20051;-47
2024/03/10 23:01:11;;;;;;;2.10;0.65;;;1.20;99.90;;;;;;21146102;28;20048;-40
2024/03/10 23:11:12;;;;;;;5.60;0.80;;;1.30;99.90;;;;;;21101556;28;20031;-43
2024/03/10 23:21:14;;;;;;;4.22;1.10;;;1.30;99.90;;;;;;21157216;28;20364;-45
2024/03/10 23:31:17;;;;;;;4.43;0.60;;;1.10;99.90;;;;;;21121049;28;20039;-47
2024/03/10 23:41:20;;;;;;;2.28;0.80;;;0.80;99.90;;;;;;21121802;28;20031;-48
2024/03/10 23:51:22;;;;;;;8.98;1.10;;;0.60;99.90;;;;;;21168826;28;20402;-44
